sensor_id;sensor_type;location;lat;lon;timestamp;temperature;humidity
7447;DHT22;3765;47.962;7.952;2023-05-07T00:02:02;12.80;74.70
7447;DHT22;3765;47.962;7.952;2023-05-07T00:04:32;12.80;75.00
7447;DHT22;3765;47.962;7.952;2023-05-07T00:07:04;12.80;74.90
7447;DHT22;3765;47.962;7.952;2023-05-07T00:09:32;12.80;75.10
7447;DHT22;3765;47.962;7.952;2023-05-07T00:12:01;12.80;75.20
7447;DHT22;3765;47.962;7.952;2023-05-07T00:14:29;12.70;75.20
7447;DHT22;3765;47.962;7.952;2023-05-07T00:16:57;12.80;75.40
7447;DHT22;3765;47.962;7.952;2023-05-07T00:19:26;12.80;75.40
7447;DHT22;3765;47.962;7.952;2023-05-07T00:21:55;12.80;75.50
7447;DHT22;3765;47.962;7.952;2023-05-07T00:24:24;12.80;75.50
7447;DHT22;3765;47.962;7.952;2023-05-07T00:26:52;12.80;75.40
7447;DHT22;3765;47.962;7.952;2023-05-07T00:29:20;12.80;75.40
7447;DHT22;3765;47.962;7.952;2023-05-07T00:31:49;12.80;75.50
7447;DHT22;3765;47.962;7.952;2023-05-07T00:34:18;12.80;75.50
7447;DHT22;3765;47.962;7.952;2023-05-07T00:36:46;12.80;75.50
7447;DHT22;3765;47.962;7.952;2023-05-07T00:39:16;12.80;75.60
7447;DHT22;3765;47.962;7.952;2023-05-07T00:41:45;12.80;75.70
7447;DHT22;3765;47.962;7.952;2023-05-07T00:44:14;12.80;75.70
7447;DHT22;3765;47.962;7.952;2023-05-07T00:46:42;12.70;75.80
7447;DHT22;3765;47.962;7.952;2023-05-07T00:49:11;12.70;75.90
7447;DHT22;3765;47.962;7.952;2023-05-07T00:51:39;12.60;75.90
7447;DHT22;3765;47.962;7.952;2023-05-07T00:54:08;12.70;76.00
7447;DHT22;3765;47.962;7.952;2023-05-07T00:56:38;12.70;76.10
7447;DHT22;3765;47.962;7.952;2023-05-07T00:59:06;12.80;76.10
7447;DHT22;3765;47.962;7.952;2023-05-07T01:01:35;12.80;76.10
7447;DHT22;3765;47.962;7.952;2023-05-07T01:04:03;12.80;76.00
7447;DHT22;3765;47.962;7.952;2023-05-07T01:06:33;12.80;76.10
7447;DHT22;3765;47.962;7.952;2023-05-07T01:09:02;12.80;76.00
7447;DHT22;3765;47.962;7.952;2023-05-07T01:11:31;12.80;76.10
7447;DHT22;3765;47.962;7.952;2023-05-07T01:14:01;12.80;76.10
7447;DHT22;3765;47.962;7.952;2023-05-07T01:16:30;12.80;76.20
7447;DHT22;3765;47.962;7.952;2023-05-07T01:18:58;12.80;76.10
7447;DHT22;3765;47.962;7.952;2023-05-07T01:21:27;12.80;76.20
7447;DHT22;3765;47.962;7.952;2023-05-07T01:23:59;12.80;76.10
7447;DHT22;3765;47.962;7.952;2023-05-07T01:26:27;12.80;76.20
7447;DHT22;3765;47.962;7.952;2023-05-07T01:28:56;12.80;76.10
7447;DHT22;3765;47.962;7.952;2023-05-07T01:31:24;12.80;76.20
7447;DHT22;3765;47.962;7.952;2023-05-07T01:33:53;12.70;76.20
7447;DHT22;3765;47.962;7.952;2023-05-07T01:36:22;12.60;76.20
7447;DHT22;3765;47.962;7.952;2023-05-07T01:38:53;12.50;76.30
7447;DHT22;3765;47.962;7.952;2023-05-07T01:41:23;12.50;76.50
7447;DHT22;3765;47.962;7.952;2023-05-07T01:43:52;12.40;76.50
7447;DHT22;3765;47.962;7.952;2023-05-07T01:46:21;12.30;76.80
7447;DHT22;3765;47.962;7.952;2023-05-07T01:48:50;12.30;77.00
7447;DHT22;3765;47.962;7.952;2023-05-07T01:51:20;12.30;77.00
7447;DHT22;3765;47.962;7.952;2023-05-07T01:53:49;12.30;77.10
7447;DHT22;3765;47.962;7.952;2023-05-07T01:56:18;12.30;77.20
7447;DHT22;3765;47.962;7.952;2023-05-07T01:58:48;12.30;77.30
7447;DHT22;3765;47.962;7.952;2023-05-07T02:01:18;12.30;77.30
7447;DHT22;3765;47.962;7.952;2023-05-07T02:03:46;12.30;77.30
7447;DHT22;3765;47.962;7.952;2023-05-07T02:06:15;12.30;77.40
7447;DHT22;3765;47.962;7.952;2023-05-07T02:08:43;12.30;77.40
7447;DHT22;3765;47.962;7.952;2023-05-07T02:11:11;12.30;77.40
7447;DHT22;3765;47.962;7.952;2023-05-07T02:13:40;12.30;77.50
7447;DHT22;3765;47.962;7.952;2023-05-07T02:16:09;12.30;77.50
7447;DHT22;3765;47.962;7.952;2023-05-07T02:18:37;12.30;77.50
7447;DHT22;3765;47.962;7.952;2023-05-07T02:21:06;12.30;77.50
7447;DHT22;3765;47.962;7.952;2023-05-07T02:23:34;12.20;77.50
7447;DHT22;3765;47.962;7.952;2023-05-07T02:26:03;12.10;77.60
7447;DHT22;3765;47.962;7.952;2023-05-07T02:28:31;12.10;77.70
7447;DHT22;3765;47.962;7.952;2023-05-07T02:31:02;12.10;77.70
7447;DHT22;3765;47.962;7.952;2023-05-07T02:33:32;12.00;77.80
7447;DHT22;3765;47.962;7.952;2023-05-07T02:36:08;11.90;77.90
7447;DHT22;3765;47.962;7.952;2023-05-07T02:38:37;11.90;78.00
7447;DHT22;3765;47.962;7.952;2023-05-07T02:41:05;11.90;78.00
7447;DHT22;3765;47.962;7.952;2023-05-07T02:43:33;11.80;78.00
7447;DHT22;3765;47.962;7.952;2023-05-07T02:46:02;11.80;78.10
7447;DHT22;3765;47.962;7.952;2023-05-07T02:48:32;11.80;78.20
7447;DHT22;3765;47.962;7.952;2023-05-07T02:51:01;11.70;78.10
7447;DHT22;3765;47.962;7.952;2023-05-07T02:53:29;11.60;78.40
7447;DHT22;3765;47.962;7.952;2023-05-07T02:55:59;11.60;78.50
7447;DHT22;3765;47.962;7.952;2023-05-07T02:58:28;11.70;78.60
7447;DHT22;3765;47.962;7.952;2023-05-07T03:00:56;11.70;78.60
7447;DHT22;3765;47.962;7.952;2023-05-07T03:03:24;11.70;78.60
7447;DHT22;3765;47.962;7.952;2023-05-07T03:05:54;11.70;78.60
7447;DHT22;3765;47.962;7.952;2023-05-07T03:08:22;11.70;78.60
7447;DHT22;3765;47.962;7.952;2023-05-07T03:10:50;11.70;78.70
7447;DHT22;3765;47.962;7.952;2023-05-07T03:13:19;11.70;78.60
7447;DHT22;3765;47.962;7.952;2023-05-07T03:15:47;11.50;78.60
7447;DHT22;3765;47.962;7.952;2023-05-07T03:18:15;11.50;78.80
7447;DHT22;3765;47.962;7.952;2023-05-07T03:20:48;11.40;78.70
7447;DHT22;3765;47.962;7.952;2023-05-07T03:23:18;11.40;78.80
7447;DHT22;3765;47.962;7.952;2023-05-07T03:25:51;11.30;78.90
7447;DHT22;3765;47.962;7.952;2023-05-07T03:28:20;11.30;79.00
7447;DHT22;3765;47.962;7.952;2023-05-07T03:30:53;11.30;79.00
7447;DHT22;3765;47.962;7.952;2023-05-07T03:33:29;11.30;79.10
7447;DHT22;3765;47.962;7.952;2023-05-07T03:36:01;11.30;79.10
7447;DHT22;3765;47.962;7.952;2023-05-07T03:38:33;11.30;79.10
7447;DHT22;3765;47.962;7.952;2023-05-07T03:41:16;11.30;79.20
7447;DHT22;3765;47.962;7.952;2023-05-07T03:43:47;11.30;79.30
7447;DHT22;3765;47.962;7.952;2023-05-07T03:46:22;11.30;79.30
7447;DHT22;3765;47.962;7.952;2023-05-07T03:49:05;11.40;79.40
7447;DHT22;3765;47.962;7.952;2023-05-07T03:51:49;11.40;79.50
7447;DHT22;3765;47.962;7.952;2023-05-07T03:54:23;11.40;79.40
7447;DHT22;3765;47.962;7.952;2023-05-07T03:57:00;11.40;79.40
7447;DHT22;3765;47.962;7.952;2023-05-07T03:59:31;11.40;79.40
7447;DHT22;3765;47.962;7.952;2023-05-07T04:01:59;11.40;79.40
7447;DHT22;3765;47.962;7.952;2023-05-07T04:04:33;11.40;79.50
7447;DHT22;3765;47.962;7.952;2023-05-07T04:07:04;11.30;79.40
7447;DHT22;3765;47.962;7.952;2023-05-07T04:09:53;11.30;79.50
7447;DHT22;3765;47.962;7.952;2023-05-07T04:12:26;11.30;79.60
7447;DHT22;3765;47.962;7.952;2023-05-07T04:14:58;11.20;79.70
7447;DHT22;3765;47.962;7.952;2023-05-07T04:17:29;11.20;79.70
7447;DHT22;3765;47.962;7.952;2023-05-07T04:19:59;11.30;79.90
7447;DHT22;3765;47.962;7.952;2023-05-07T04:22:31;11.30;79.90
7447;DHT22;3765;47.962;7.952;2023-05-07T04:25:09;11.40;79.90
7447;DHT22;3765;47.962;7.952;2023-05-07T04:27:44;11.40;79.80
7447;DHT22;3765;47.962;7.952;2023-05-07T04:30:17;11.40;79.80
7447;DHT22;3765;47.962;7.952;2023-05-07T04:32:47;11.40;79.70
7447;DHT22;3765;47.962;7.952;2023-05-07T04:35:33;11.40;79.80
7447;DHT22;3765;47.962;7.952;2023-05-07T04:38:03;11.40;79.80
7447;DHT22;3765;47.962;7.952;2023-05-07T04:40:48;11.50;79.90
7447;DHT22;3765;47.962;7.952;2023-05-07T04:43:18;11.50;79.80
7447;DHT22;3765;47.962;7.952;2023-05-07T04:45:55;11.50;80.00
7447;DHT22;3765;47.962;7.952;2023-05-07T04:48:37;11.70;79.90
7447;DHT22;3765;47.962;7.952;2023-05-07T04:51:09;11.80;79.80
7447;DHT22;3765;47.962;7.952;2023-05-07T04:53:40;11.90;79.80
7447;DHT22;3765;47.962;7.952;2023-05-07T04:56:14;12.00;79.70
7447;DHT22;3765;47.962;7.952;2023-05-07T04:58:57;12.10;79.60
7447;DHT22;3765;47.962;7.952;2023-05-07T05:01:28;12.30;79.60
7447;DHT22;3765;47.962;7.952;2023-05-07T05:03:59;12.50;79.50
7447;DHT22;3765;47.962;7.952;2023-05-07T05:06:30;12.60;79.30
7447;DHT22;3765;47.962;7.952;2023-05-07T05:09:01;12.80;79.10
7447;DHT22;3765;47.962;7.952;2023-05-07T05:11:33;13.00;79.00
7447;DHT22;3765;47.962;7.952;2023-05-07T05:14:10;13.10;78.80
7447;DHT22;3765;47.962;7.952;2023-05-07T05:16:39;13.30;78.60
7447;DHT22;3765;47.962;7.952;2023-05-07T05:19:19;13.40;78.40
7447;DHT22;3765;47.962;7.952;2023-05-07T05:21:47;13.60;78.30
7447;DHT22;3765;47.962;7.952;2023-05-07T05:24:19;13.70;78.00
7447;DHT22;3765;47.962;7.952;2023-05-07T05:26:49;13.80;78.00
7447;DHT22;3765;47.962;7.952;2023-05-07T05:29:29;13.80;77.90
7447;DHT22;3765;47.962;7.952;2023-05-07T05:31:58;13.70;77.90
7447;DHT22;3765;47.962;7.952;2023-05-07T05:34:34;13.80;77.90
7447;DHT22;3765;47.962;7.952;2023-05-07T05:37:05;13.90;77.70
7447;DHT22;3765;47.962;7.952;2023-05-07T05:39:36;13.90;77.50
7447;DHT22;3765;47.962;7.952;2023-05-07T05:42:17;14.00;77.50
7447;DHT22;3765;47.962;7.952;2023-05-07T05:44:51;14.10;77.40
7447;DHT22;3765;47.962;7.952;2023-05-07T05:47:24;14.20;77.40
7447;DHT22;3765;47.962;7.952;2023-05-07T05:49:55;14.20;77.30
7447;DHT22;3765;47.962;7.952;2023-05-07T05:52:25;14.40;77.20
7447;DHT22;3765;47.962;7.952;2023-05-07T05:55:04;14.50;76.90
7447;DHT22;3765;47.962;7.952;2023-05-07T05:57:38;14.50;76.60
7447;DHT22;3765;47.962;7.952;2023-05-07T06:00:10;14.60;76.50
7447;DHT22;3765;47.962;7.952;2023-05-07T06:03:02;14.60;76.50
7447;DHT22;3765;47.962;7.952;2023-05-07T06:05:36;14.90;76.40
7447;DHT22;3765;47.962;7.952;2023-05-07T06:08:33;15.30;76.10
7447;DHT22;3765;47.962;7.952;2023-05-07T06:11:04;15.70;75.50
7447;DHT22;3765;47.962;7.952;2023-05-07T06:13:43;15.80;74.90
7447;DHT22;3765;47.962;7.952;2023-05-07T06:16:27;16.10;74.80
7447;DHT22;3765;47.962;7.952;2023-05-07T06:18:59;16.10;74.10
7447;DHT22;3765;47.962;7.952;2023-05-07T06:21:32;16.00;73.80
7447;DHT22;3765;47.962;7.952;2023-05-07T06:24:02;16.00;74.10
7447;DHT22;3765;47.962;7.952;2023-05-07T06:26:34;16.20;74.30
7447;DHT22;3765;47.962;7.952;2023-05-07T06:29:10;16.60;73.70
7447;DHT22;3765;47.962;7.952;2023-05-07T06:31:42;16.80;73.20
7447;DHT22;3765;47.962;7.952;2023-05-07T06:34:13;16.80;72.70
7447;DHT22;3765;47.962;7.952;2023-05-07T06:37:19;17.10;72.40
7447;DHT22;3765;47.962;7.952;2023-05-07T06:39:48;17.10;71.90
7447;DHT22;3765;47.962;7.952;2023-05-07T06:42:19;17.10;71.70
7447;DHT22;3765;47.962;7.952;2023-05-07T06:45:02;17.20;71.30
7447;DHT22;3765;47.962;7.952;2023-05-07T06:47:34;17.00;71.10
7447;DHT22;3765;47.962;7.952;2023-05-07T06:50:07;16.80;71.30
7447;DHT22;3765;47.962;7.952;2023-05-07T06:52:39;16.70;71.40
7447;DHT22;3765;47.962;7.952;2023-05-07T06:55:09;16.90;71.50
7447;DHT22;3765;47.962;7.952;2023-05-07T06:57:40;17.20;71.10
7447;DHT22;3765;47.962;7.952;2023-05-07T07:00:30;17.40;70.70
7447;DHT22;3765;47.962;7.952;2023-05-07T07:03:03;17.50;70.30
7447;DHT22;3765;47.962;7.952;2023-05-07T07:05:32;17.50;69.90
7447;DHT22;3765;47.962;7.952;2023-05-07T07:08:02;17.70;69.80
7447;DHT22;3765;47.962;7.952;2023-05-07T07:10:38;17.40;69.10
7447;DHT22;3765;47.962;7.952;2023-05-07T07:13:07;17.40;69.70
7447;DHT22;3765;47.962;7.952;2023-05-07T07:15:39;17.60;69.50
7447;DHT22;3765;47.962;7.952;2023-05-07T07:18:09;17.50;69.50
7447;DHT22;3765;47.962;7.952;2023-05-07T07:20:38;17.50;69.50
7447;DHT22;3765;47.962;7.952;2023-05-07T07:23:10;17.50;69.30
7447;DHT22;3765;47.962;7.952;2023-05-07T07:25:38;17.60;69.40
7447;DHT22;3765;47.962;7.952;2023-05-07T07:28:09;18.00;69.30
7447;DHT22;3765;47.962;7.952;2023-05-07T07:30:47;18.40;68.80
7447;DHT22;3765;47.962;7.952;2023-05-07T07:33:18;18.60;68.40
7447;DHT22;3765;47.962;7.952;2023-05-07T07:35:50;18.80;67.40
7447;DHT22;3765;47.962;7.952;2023-05-07T07:38:32;18.70;67.70
7447;DHT22;3765;47.962;7.952;2023-05-07T07:41:20;18.80;67.20
7447;DHT22;3765;47.962;7.952;2023-05-07T07:43:52;18.50;67.40
7447;DHT22;3765;47.962;7.952;2023-05-07T07:46:32;18.80;67.50
7447;DHT22;3765;47.962;7.952;2023-05-07T07:49:12;18.60;66.90
7447;DHT22;3765;47.962;7.952;2023-05-07T07:51:55;18.70;67.30
7447;DHT22;3765;47.962;7.952;2023-05-07T07:54:27;18.90;67.00
7447;DHT22;3765;47.962;7.952;2023-05-07T07:57:11;19.10;66.80
7447;DHT22;3765;47.962;7.952;2023-05-07T07:59:43;19.10;66.10
7447;DHT22;3765;47.962;7.952;2023-05-07T08:02:14;19.20;65.80
7447;DHT22;3765;47.962;7.952;2023-05-07T08:04:44;19.30;65.70
7447;DHT22;3765;47.962;7.952;2023-05-07T08:07:13;19.60;65.60
7447;DHT22;3765;47.962;7.952;2023-05-07T08:09:50;19.60;64.80
7447;DHT22;3765;47.962;7.952;2023-05-07T08:12:20;19.50;64.80
7447;DHT22;3765;47.962;7.952;2023-05-07T08:14:53;19.80;64.70
7447;DHT22;3765;47.962;7.952;2023-05-07T08:17:25;20.10;64.20
7447;DHT22;3765;47.962;7.952;2023-05-07T08:19:59;19.80;63.40
7447;DHT22;3765;47.962;7.952;2023-05-07T08:22:29;20.10;63.60
7447;DHT22;3765;47.962;7.952;2023-05-07T08:24:57;20.30;63.00
7447;DHT22;3765;47.962;7.952;2023-05-07T08:27:28;20.50;62.70
7447;DHT22;3765;47.962;7.952;2023-05-07T08:30:07;20.70;62.30
7447;DHT22;3765;47.962;7.952;2023-05-07T08:32:54;20.50;62.30
7447;DHT22;3765;47.962;7.952;2023-05-07T08:35:26;20.80;62.20
7447;DHT22;3765;47.962;7.952;2023-05-07T08:37:56;20.60;62.40
7447;DHT22;3765;47.962;7.952;2023-05-07T08:40:28;20.70;62.00
7447;DHT22;3765;47.962;7.952;2023-05-07T08:43:00;20.80;61.50
7447;DHT22;3765;47.962;7.952;2023-05-07T08:45:34;20.60;61.80
7447;DHT22;3765;47.962;7.952;2023-05-07T08:48:22;20.70;62.20
7447;DHT22;3765;47.962;7.952;2023-05-07T08:50:57;20.90;61.80
7447;DHT22;3765;47.962;7.952;2023-05-07T08:53:28;20.90;61.70
7447;DHT22;3765;47.962;7.952;2023-05-07T08:56:00;20.90;61.70
7447;DHT22;3765;47.962;7.952;2023-05-07T08:58:34;20.90;62.00
7447;DHT22;3765;47.962;7.952;2023-05-07T09:01:09;20.70;61.70
7447;DHT22;3765;47.962;7.952;2023-05-07T09:03:52;20.50;62.00
7447;DHT22;3765;47.962;7.952;2023-05-07T09:06:24;20.50;61.60
7447;DHT22;3765;47.962;7.952;2023-05-07T09:09:08;20.50;62.10
7447;DHT22;3765;47.962;7.952;2023-05-07T09:11:40;20.50;61.70
7447;DHT22;3765;47.962;7.952;2023-05-07T09:14:16;20.40;62.20
7447;DHT22;3765;47.962;7.952;2023-05-07T09:17:07;20.60;62.30
7447;DHT22;3765;47.962;7.952;2023-05-07T09:20:13;20.90;62.30
7447;DHT22;3765;47.962;7.952;2023-05-07T09:22:56;21.30;61.50
7447;DHT22;3765;47.962;7.952;2023-05-07T09:25:30;21.00;61.50
7447;DHT22;3765;47.962;7.952;2023-05-07T09:28:10;21.30;61.40
7447;DHT22;3765;47.962;7.952;2023-05-07T09:30:39;21.50;61.10
7447;DHT22;3765;47.962;7.952;2023-05-07T09:33:09;21.80;60.60
7447;DHT22;3765;47.962;7.952;2023-05-07T09:35:39;21.50;60.60
7447;DHT22;3765;47.962;7.952;2023-05-07T09:38:12;21.40;60.60
7447;DHT22;3765;47.962;7.952;2023-05-07T09:40:45;21.50;61.30
7447;DHT22;3765;47.962;7.952;2023-05-07T09:43:18;21.80;60.90
7447;DHT22;3765;47.962;7.952;2023-05-07T09:45:48;21.40;60.80
7447;DHT22;3765;47.962;7.952;2023-05-07T09:48:20;21.60;61.00
7447;DHT22;3765;47.962;7.952;2023-05-07T09:50:52;21.30;61.30
7447;DHT22;3765;47.962;7.952;2023-05-07T09:53:40;21.30;61.40
7447;DHT22;3765;47.962;7.952;2023-05-07T09:56:10;20.80;61.80
7447;DHT22;3765;47.962;7.952;2023-05-07T09:58:58;20.40;62.50
7447;DHT22;3765;47.962;7.952;2023-05-07T10:01:31;20.50;62.70
7447;DHT22;3765;47.962;7.952;2023-05-07T10:04:02;20.80;62.80
7447;DHT22;3765;47.962;7.952;2023-05-07T10:06:36;20.80;62.60
7447;DHT22;3765;47.962;7.952;2023-05-07T10:09:30;20.80;62.50
7447;DHT22;3765;47.962;7.952;2023-05-07T10:12:06;20.70;62.30
7447;DHT22;3765;47.962;7.952;2023-05-07T10:14:38;20.50;62.30
7447;DHT22;3765;47.962;7.952;2023-05-07T10:17:09;20.20;62.20
7447;DHT22;3765;47.962;7.952;2023-05-07T10:19:44;19.70;62.00
7447;DHT22;3765;47.962;7.952;2023-05-07T10:22:31;19.10;62.20
7447;DHT22;3765;47.962;7.952;2023-05-07T10:25:09;18.50;63.20
7447;DHT22;3765;47.962;7.952;2023-05-07T10:27:48;18.00;63.20
7447;DHT22;3765;47.962;7.952;2023-05-07T10:30:29;17.50;64.40
7447;DHT22;3765;47.962;7.952;2023-05-07T10:33:05;17.40;64.80
7447;DHT22;3765;47.962;7.952;2023-05-07T10:35:45;17.20;65.80
7447;DHT22;3765;47.962;7.952;2023-05-07T10:38:25;16.60;66.60
7447;DHT22;3765;47.962;7.952;2023-05-07T10:41:04;16.60;67.50
7447;DHT22;3765;47.962;7.952;2023-05-07T10:43:43;16.50;68.20
7447;DHT22;3765;47.962;7.952;2023-05-07T10:46:23;16.70;69.00
7447;DHT22;3765;47.962;7.952;2023-05-07T10:49:09;17.00;69.80
7447;DHT22;3765;47.962;7.952;2023-05-07T10:51:38;17.50;70.30
7447;DHT22;3765;47.962;7.952;2023-05-07T10:54:36;18.10;70.70
7447;DHT22;3765;47.962;7.952;2023-05-07T10:57:32;18.50;70.30
7447;DHT22;3765;47.962;7.952;2023-05-07T11:00:06;18.90;70.70
7447;DHT22;3765;47.962;7.952;2023-05-07T11:03:05;19.40;70.10
7447;DHT22;3765;47.962;7.952;2023-05-07T11:05:38;19.60;69.60
7447;DHT22;3765;47.962;7.952;2023-05-07T11:08:16;19.50;69.50
7447;DHT22;3765;47.962;7.952;2023-05-07T11:11:06;19.50;69.30
7447;DHT22;3765;47.962;7.952;2023-05-07T11:13:53;19.40;69.60
7447;DHT22;3765;47.962;7.952;2023-05-07T11:16:25;19.20;69.30
7447;DHT22;3765;47.962;7.952;2023-05-07T11:18:57;19.00;69.80
7447;DHT22;3765;47.962;7.952;2023-05-07T11:21:36;19.10;70.90
7447;DHT22;3765;47.962;7.952;2023-05-07T11:24:05;19.50;70.50
7447;DHT22;3765;47.962;7.952;2023-05-07T11:26:45;19.80;70.40
7447;DHT22;3765;47.962;7.952;2023-05-07T11:29:22;20.10;69.70
7447;DHT22;3765;47.962;7.952;2023-05-07T11:31:55;20.30;69.40
7447;DHT22;3765;47.962;7.952;2023-05-07T11:34:34;20.50;69.40
7447;DHT22;3765;47.962;7.952;2023-05-07T11:37:17;20.80;69.10
7447;DHT22;3765;47.962;7.952;2023-05-07T11:39:45;21.10;68.80
7447;DHT22;3765;47.962;7.952;2023-05-07T11:42:29;21.10;68.20
7447;DHT22;3765;47.962;7.952;2023-05-07T11:44:59;21.10;67.50
7447;DHT22;3765;47.962;7.952;2023-05-07T11:47:30;21.10;67.50
7447;DHT22;3765;47.962;7.952;2023-05-07T11:50:04;20.80;66.80
7447;DHT22;3765;47.962;7.952;2023-05-07T11:52:36;20.90;67.90
7447;DHT22;3765;47.962;7.952;2023-05-07T11:55:10;21.30;67.40
7447;DHT22;3765;47.962;7.952;2023-05-07T11:57:47;21.40;67.30
7447;DHT22;3765;47.962;7.952;2023-05-07T12:00:20;21.40;67.20
7447;DHT22;3765;47.962;7.952;2023-05-07T12:02:49;21.40;67.30
7447;DHT22;3765;47.962;7.952;2023-05-07T12:05:20;21.50;67.20
7447;DHT22;3765;47.962;7.952;2023-05-07T12:07:55;21.50;66.60
7447;DHT22;3765;47.962;7.952;2023-05-07T12:10:25;21.30;66.10
7447;DHT22;3765;47.962;7.952;2023-05-07T12:12:57;21.30;66.50
7447;DHT22;3765;47.962;7.952;2023-05-07T12:15:29;21.50;66.00
7447;DHT22;3765;47.962;7.952;2023-05-07T12:18:03;21.70;65.70
7447;DHT22;3765;47.962;7.952;2023-05-07T12:20:39;21.80;65.90
7447;DHT22;3765;47.962;7.952;2023-05-07T12:23:15;22.00;65.90
7447;DHT22;3765;47.962;7.952;2023-05-07T12:25:47;22.30;65.50
7447;DHT22;3765;47.962;7.952;2023-05-07T12:28:19;21.90;65.00
7447;DHT22;3765;47.962;7.952;2023-05-07T12:30:50;21.80;65.10
7447;DHT22;3765;47.962;7.952;2023-05-07T12:33:25;21.60;64.50
7447;DHT22;3765;47.962;7.952;2023-05-07T12:35:55;21.50;65.20
7447;DHT22;3765;47.962;7.952;2023-05-07T12:38:24;21.60;65.30
7447;DHT22;3765;47.962;7.952;2023-05-07T12:40:54;21.90;65.60
7447;DHT22;3765;47.962;7.952;2023-05-07T12:43:25;22.00;65.00
7447;DHT22;3765;47.962;7.952;2023-05-07T12:45:55;22.10;64.70
7447;DHT22;3765;47.962;7.952;2023-05-07T12:48:24;21.60;64.90
7447;DHT22;3765;47.962;7.952;2023-05-07T12:50:54;21.60;65.40
7447;DHT22;3765;47.962;7.952;2023-05-07T12:53:24;21.80;65.80
7447;DHT22;3765;47.962;7.952;2023-05-07T12:55:54;22.20;65.00
7447;DHT22;3765;47.962;7.952;2023-05-07T12:58:26;22.30;64.60
7447;DHT22;3765;47.962;7.952;2023-05-07T13:00:56;22.00;64.60
7447;DHT22;3765;47.962;7.952;2023-05-07T13:03:28;21.80;64.40
7447;DHT22;3765;47.962;7.952;2023-05-07T13:05:59;21.50;64.70
7447;DHT22;3765;47.962;7.952;2023-05-07T13:08:29;21.20;64.70
7447;DHT22;3765;47.962;7.952;2023-05-07T13:11:00;20.90;65.40
7447;DHT22;3765;47.962;7.952;2023-05-07T13:13:34;20.70;65.50
7447;DHT22;3765;47.962;7.952;2023-05-07T13:16:06;20.20;65.80
7447;DHT22;3765;47.962;7.952;2023-05-07T13:18:37;19.90;66.40
7447;DHT22;3765;47.962;7.952;2023-05-07T13:21:06;19.80;66.80
7447;DHT22;3765;47.962;7.952;2023-05-07T13:23:40;19.80;67.30
7447;DHT22;3765;47.962;7.952;2023-05-07T13:26:08;19.80;67.50
7447;DHT22;3765;47.962;7.952;2023-05-07T13:28:58;19.60;67.60
7447;DHT22;3765;47.962;7.952;2023-05-07T13:31:29;19.80;67.90
7447;DHT22;3765;47.962;7.952;2023-05-07T13:34:05;19.80;67.90
7447;DHT22;3765;47.962;7.952;2023-05-07T13:36:33;19.80;68.10
7447;DHT22;3765;47.962;7.952;2023-05-07T13:39:03;19.60;68.70
7447;DHT22;3765;47.962;7.952;2023-05-07T13:41:33;19.70;69.30
7447;DHT22;3765;47.962;7.952;2023-05-07T13:44:03;19.60;69.50
7447;DHT22;3765;47.962;7.952;2023-05-07T13:46:31;19.80;69.90
7447;DHT22;3765;47.962;7.952;2023-05-07T13:48:59;19.90;69.90
7447;DHT22;3765;47.962;7.952;2023-05-07T13:51:27;20.20;69.90
7447;DHT22;3765;47.962;7.952;2023-05-07T13:53:55;20.70;69.70
7447;DHT22;3765;47.962;7.952;2023-05-07T13:56:25;20.90;69.30
7447;DHT22;3765;47.962;7.952;2023-05-07T13:58:55;20.60;68.90
7447;DHT22;3765;47.962;7.952;2023-05-07T14:01:28;20.50;69.70
7447;DHT22;3765;47.962;7.952;2023-05-07T14:03:56;20.40;70.20
7447;DHT22;3765;47.962;7.952;2023-05-07T14:06:29;20.40;70.10
7447;DHT22;3765;47.962;7.952;2023-05-07T14:08:58;20.70;69.60
7447;DHT22;3765;47.962;7.952;2023-05-07T14:11:26;20.70;69.00
7447;DHT22;3765;47.962;7.952;2023-05-07T14:13:55;20.60;68.80
7447;DHT22;3765;47.962;7.952;2023-05-07T14:16:28;20.50;68.80
7447;DHT22;3765;47.962;7.952;2023-05-07T14:18:56;20.30;68.80
7447;DHT22;3765;47.962;7.952;2023-05-07T14:21:25;19.90;69.40
7447;DHT22;3765;47.962;7.952;2023-05-07T14:23:53;19.60;69.40
7447;DHT22;3765;47.962;7.952;2023-05-07T14:26:23;19.60;69.70
7447;DHT22;3765;47.962;7.952;2023-05-07T14:28:54;19.90;69.90
7447;DHT22;3765;47.962;7.952;2023-05-07T14:31:24;20.20;69.50
7447;DHT22;3765;47.962;7.952;2023-05-07T14:33:53;20.30;69.40
7447;DHT22;3765;47.962;7.952;2023-05-07T14:36:22;20.50;69.20
7447;DHT22;3765;47.962;7.952;2023-05-07T14:38:52;20.50;69.40
7447;DHT22;3765;47.962;7.952;2023-05-07T14:41:22;20.80;69.60
7447;DHT22;3765;47.962;7.952;2023-05-07T14:43:50;21.30;68.90
7447;DHT22;3765;47.962;7.952;2023-05-07T14:46:18;21.80;68.70
7447;DHT22;3765;47.962;7.952;2023-05-07T14:48:47;22.50;67.00
7447;DHT22;3765;47.962;7.952;2023-05-07T14:51:17;22.90;66.30
7447;DHT22;3765;47.962;7.952;2023-05-07T14:53:47;23.60;65.30
7447;DHT22;3765;47.962;7.952;2023-05-07T14:56:15;23.10;64.30
7447;DHT22;3765;47.962;7.952;2023-05-07T14:58:43;22.30;64.50
7447;DHT22;3765;47.962;7.952;2023-05-07T15:01:11;21.30;65.40
7447;DHT22;3765;47.962;7.952;2023-05-07T15:03:40;20.80;66.40
7447;DHT22;3765;47.962;7.952;2023-05-07T15:06:08;20.70;66.90
7447;DHT22;3765;47.962;7.952;2023-05-07T15:08:38;20.70;67.10
7447;DHT22;3765;47.962;7.952;2023-05-07T15:11:06;20.80;67.30
7447;DHT22;3765;47.962;7.952;2023-05-07T15:13:34;20.50;67.30
7447;DHT22;3765;47.962;7.952;2023-05-07T15:16:03;20.30;67.90
7447;DHT22;3765;47.962;7.952;2023-05-07T15:18:31;20.30;67.80
7447;DHT22;3765;47.962;7.952;2023-05-07T15:20:59;20.30;68.00
7447;DHT22;3765;47.962;7.952;2023-05-07T15:23:27;20.40;68.10
7447;DHT22;3765;47.962;7.952;2023-05-07T15:25:57;20.60;68.20
7447;DHT22;3765;47.962;7.952;2023-05-07T15:28:26;20.80;68.20
7447;DHT22;3765;47.962;7.952;2023-05-07T15:30:54;21.60;68.20
7447;DHT22;3765;47.962;7.952;2023-05-07T15:33:23;22.50;66.10
7447;DHT22;3765;47.962;7.952;2023-05-07T15:35:51;23.50;65.70
7447;DHT22;3765;47.962;7.952;2023-05-07T15:38:20;24.30;62.30
7447;DHT22;3765;47.962;7.952;2023-05-07T15:40:48;23.90;61.70
7447;DHT22;3765;47.962;7.952;2023-05-07T15:43:18;24.10;62.10
7447;DHT22;3765;47.962;7.952;2023-05-07T15:45:46;23.70;61.60
7447;DHT22;3765;47.962;7.952;2023-05-07T15:48:14;24.30;61.60
7447;DHT22;3765;47.962;7.952;2023-05-07T15:50:42;24.80;60.50
7447;DHT22;3765;47.962;7.952;2023-05-07T15:53:10;25.30;59.40
7447;DHT22;3765;47.962;7.952;2023-05-07T15:55:40;25.30;58.70
7447;DHT22;3765;47.962;7.952;2023-05-07T15:58:10;25.20;58.90
7447;DHT22;3765;47.962;7.952;2023-05-07T16:00:39;25.50;58.70
7447;DHT22;3765;47.962;7.952;2023-05-07T16:03:08;25.30;57.10
7447;DHT22;3765;47.962;7.952;2023-05-07T16:05:36;25.40;56.30
7447;DHT22;3765;47.962;7.952;2023-05-07T16:08:04;25.10;55.60
7447;DHT22;3765;47.962;7.952;2023-05-07T16:10:33;25.90;54.50
7447;DHT22;3765;47.962;7.952;2023-05-07T16:13:01;25.30;53.00
7447;DHT22;3765;47.962;7.952;2023-05-07T16:15:29;24.00;54.20
7447;DHT22;3765;47.962;7.952;2023-05-07T16:17:59;23.10;55.00
7447;DHT22;3765;47.962;7.952;2023-05-07T16:20:28;23.10;55.60
7447;DHT22;3765;47.962;7.952;2023-05-07T16:22:57;22.90;55.60
7447;DHT22;3765;47.962;7.952;2023-05-07T16:25:25;22.40;56.00
7447;DHT22;3765;47.962;7.952;2023-05-07T16:27:54;22.30;56.40
7447;DHT22;3765;47.962;7.952;2023-05-07T16:30:23;22.00;55.90
7447;DHT22;3765;47.962;7.952;2023-05-07T16:32:51;21.80;57.00
7447;DHT22;3765;47.962;7.952;2023-05-07T16:35:21;21.80;57.20
7447;DHT22;3765;47.962;7.952;2023-05-07T16:37:50;21.80;57.30